Current Conditions
Partly Cloudy
Conditions



Pressure
1028.92 (mb) - 30.38 (inHG)
Visibility

6.2 (miles) - 10.0 (km)
   Temperature
8  °C
Temperature
1  °C
Dewpoint
62  %
 Humidity
   Wind Speed
8  mph
7  kts
13  km/h
3.6  m/s
   Wind Direction
N
45°
E
90°
135°
S
180°
225°
W
270°
315°
 20°

North North
East
   Airport Data
EGGD
Bristol Airport
Metar :EGGD 121220Z AUTO 02007KT 340V050 9999 FEW025 SCT029 OVC049 08/01 Q1029
Mon 12th April 13:20 pm
   Raw Metar Info
Raw METAR is the most common format in the world for the transmission of observational weather data. It is highly standardized through the International Civil Aviation Organization (ICAO), which allows it to be understood throughout most of the world.
   API Info
Data Provided by
https://www.checkwx.com/weather/EGGD

Aviation Weather providing METAR, TAF, AIRMET, SIGMET and OUTLOOK Weather Reports
   © Info
CSS/SVG/PHP scripts were developed by weather34.com for use in the weather34 template © 2015-2021

Guide Info provided by Metar-Wikipedia